createdAt,value
2019-03-19T00:01:23.357Z,97611.94
2019-03-19T00:03:54.663Z,97613.05
2019-03-19T00:06:26.691Z,97619.91
2019-03-19T00:08:57.895Z,97616.05
2019-03-19T00:11:29.205Z,97616.44
2019-03-19T00:14:00.622Z,97625.73
2019-03-19T00:16:32.060Z,97625.22
2019-03-19T00:19:03.649Z,97620.56
2019-03-19T00:21:35.003Z,97629.64
2019-03-19T00:24:06.462Z,97632.16
2019-03-19T00:26:38.007Z,97634.86
2019-03-19T00:29:09.313Z,97645.49
2019-03-19T00:31:41.050Z,97640.30
2019-03-19T00:34:12.337Z,97644.58
2019-03-19T00:36:43.866Z,97645.00
2019-03-19T00:39:15.217Z,97637.80
2019-03-19T00:41:47.077Z,97648.97
2019-03-19T00:44:18.548Z,97651.70
2019-03-19T00:46:50.013Z,97654.23
2019-03-19T00:49:21.673Z,97648.44
2019-03-19T00:51:52.962Z,97653.80
2019-03-19T00:54:24.400Z,97646.06
2019-03-19T00:56:56.162Z,97641.27
2019-03-19T00:59:27.606Z,97643.53
2019-03-19T01:01:59.011Z,97652.08
2019-03-19T01:04:30.457Z,97653.42
2019-03-19T01:07:01.942Z,97653.61
2019-03-19T01:09:33.372Z,97652.03
2019-03-19T01:12:05.192Z,97654.08
2019-03-19T01:14:37.431Z,97648.05
2019-03-19T01:17:08.881Z,97643.48
2019-03-19T01:19:40.283Z,97641.29
2019-03-19T01:22:12.280Z,97646.23
2019-03-19T01:24:43.671Z,97642.66
2019-03-19T01:27:15.184Z,97644.38
2019-03-19T01:29:46.551Z,97648.92
2019-03-19T01:32:18.142Z,97646.02
2019-03-19T01:34:49.596Z,97655.27
2019-03-19T01:37:20.837Z,97642.53
2019-03-19T01:39:52.190Z,97652.88
2019-03-19T01:42:23.441Z,97650.66
2019-03-19T01:44:54.873Z,97648.05
2019-03-19T01:47:26.545Z,97654.77
2019-03-19T01:49:58.276Z,97648.02
2019-03-19T01:52:29.722Z,97643.37
2019-03-19T01:55:01.460Z,97647.36
2019-03-19T01:57:32.826Z,97653.00
2019-03-19T02:00:04.675Z,97658.87
2019-03-19T02:02:36.083Z,97659.86
2019-03-19T02:05:07.749Z,97660.66
2019-03-19T02:07:39.496Z,97646.66
2019-03-19T02:10:11.604Z,97658.36
2019-03-19T02:12:43.454Z,97657.28
2019-03-19T02:15:15.051Z,97665.09
2019-03-19T02:17:47.566Z,97663.26
2019-03-19T02:20:19.647Z,97658.91
2019-03-19T02:22:51.026Z,97659.59
2019-03-19T02:25:22.479Z,97665.40
2019-03-19T02:27:53.901Z,97668.53
2019-03-19T02:30:26.092Z,97674.50
2019-03-19T02:32:57.409Z,97690.69
2019-03-19T02:35:29.783Z,97682.80
2019-03-19T02:38:01.242Z,97687.26
2019-03-19T02:40:32.714Z,97686.86
2019-03-19T02:43:04.097Z,97676.07
2019-03-19T02:45:35.401Z,97677.50
2019-03-19T02:48:06.883Z,97684.68
2019-03-19T02:50:38.366Z,97673.38
2019-03-19T02:53:09.974Z,97675.50
2019-03-19T02:55:41.675Z,97677.31
2019-03-19T02:58:13.044Z,97677.59
2019-03-19T03:00:44.566Z,97683.64
2019-03-19T03:03:16.257Z,97684.96
2019-03-19T03:05:47.923Z,97681.47
2019-03-19T03:08:19.639Z,97686.11
2019-03-19T03:10:50.956Z,97691.95
2019-03-19T03:13:22.387Z,97688.80
2019-03-19T03:15:53.689Z,97691.06
2019-03-19T03:18:25.273Z,97688.50
2019-03-19T03:20:57.212Z,97689.03
2019-03-19T03:23:28.804Z,97691.09
2019-03-19T03:26:00.098Z,97697.09
2019-03-19T03:28:31.419Z,97687.02
2019-03-19T03:31:02.748Z,97688.10
2019-03-19T03:33:33.971Z,97693.19
2019-03-19T03:36:05.719Z,97685.44
2019-03-19T03:38:37.342Z,97695.28
2019-03-19T03:41:09.132Z,97679.91
2019-03-19T03:43:40.514Z,97689.11
2019-03-19T03:46:11.949Z,97689.57
2019-03-19T03:48:43.451Z,97689.04
2019-03-19T03:51:14.831Z,97687.84
2019-03-19T03:53:46.479Z,97689.57
2019-03-19T03:56:18.168Z,97691.52
2019-03-19T03:58:59.942Z,97688.02
2019-03-19T04:01:31.848Z,97683.80
2019-03-19T04:04:03.218Z,97694.36
2019-03-19T04:06:34.615Z,97703.38
2019-03-19T04:09:09.367Z,97700.59
2019-03-19T04:11:43.585Z,97700.48
2019-03-19T04:14:14.861Z,97710.35
2019-03-19T04:16:46.212Z,97712.39
2019-03-19T04:19:17.587Z,97707.14
2019-03-19T04:21:48.929Z,97715.56
2019-03-19T04:24:20.787Z,97720.63
2019-03-19T04:26:52.171Z,97718.23
2019-03-19T04:29:23.451Z,97722.29
2019-03-19T04:31:55.005Z,97730.06
2019-03-19T04:34:26.273Z,97726.50
2019-03-19T04:36:57.823Z,97729.97
2019-03-19T04:39:30.388Z,97730.52
2019-03-19T04:42:01.996Z,97732.22
2019-03-19T04:44:33.364Z,97738.33
2019-03-19T04:47:04.775Z,97731.76
2019-03-19T04:49:36.303Z,97744.23
2019-03-19T04:52:07.680Z,97747.45
2019-03-19T04:54:39.344Z,97747.19
2019-03-19T04:57:10.650Z,97748.62
2019-03-19T04:59:41.909Z,97749.28
2019-03-19T05:02:13.281Z,97759.13
2019-03-19T05:04:44.980Z,97763.30
2019-03-19T05:07:16.259Z,97764.09
2019-03-19T05:09:47.819Z,97766.16
2019-03-19T05:12:19.869Z,97761.13
2019-03-19T05:14:51.195Z,97780.06
2019-03-19T05:17:22.834Z,97781.16
2019-03-19T05:19:54.259Z,97782.81
2019-03-19T05:22:25.571Z,97780.67
2019-03-19T05:24:57.358Z,97775.05
2019-03-19T05:27:37.024Z,97777.95
2019-03-19T05:30:03.083Z,97790.09
2019-03-19T05:32:34.744Z,97797.64
2019-03-19T05:35:06.974Z,97794.06
2019-03-19T05:37:38.634Z,97798.14
2019-03-19T05:40:11.175Z,97794.32
2019-03-19T05:42:42.726Z,97785.04
2019-03-19T05:45:14.452Z,97785.04
2019-03-19T05:47:46.428Z,97795.61
2019-03-19T05:50:17.897Z,97794.45
2019-03-19T05:52:49.682Z,97800.09
2019-03-19T05:55:21.413Z,97811.57
2019-03-19T05:57:52.798Z,97810.09
2019-03-19T06:00:25.054Z,97805.83
2019-03-19T06:02:56.465Z,97816.15
2019-03-19T06:05:27.902Z,97820.87
2019-03-19T06:07:59.514Z,97829.36
2019-03-19T06:10:30.887Z,97818.09
2019-03-19T06:13:02.116Z,97817.03
2019-03-19T06:15:33.688Z,97820.49
2019-03-19T06:18:05.308Z,97821.22
2019-03-19T06:20:36.774Z,97824.84
2019-03-19T06:23:08.138Z,97831.17
2019-03-19T06:25:39.454Z,97832.61
2019-03-19T06:28:10.719Z,97831.48
2019-03-19T06:30:42.136Z,97830.55
2019-03-19T06:33:13.415Z,97831.39
2019-03-19T06:35:44.700Z,97828.72
2019-03-19T06:38:16.374Z,97834.67
2019-03-19T06:40:47.729Z,97838.02
2019-03-19T06:43:18.983Z,97841.42
2019-03-19T06:45:50.184Z,97842.39
2019-03-19T06:48:21.699Z,97849.53
2019-03-19T06:50:53.121Z,97845.73
2019-03-19T06:53:24.651Z,97844.55
2019-03-19T06:55:56.084Z,97849.27
2019-03-19T06:58:27.288Z,97855.58
2019-03-19T07:00:58.589Z,97853.83
2019-03-19T07:03:29.806Z,97851.48
2019-03-19T07:06:01.215Z,97843.11
2019-03-19T07:08:32.498Z,97839.74
2019-03-19T07:11:03.865Z,97848.45
2019-03-19T07:13:35.073Z,97848.27
2019-03-19T07:16:06.621Z,97857.56
2019-03-19T07:18:37.881Z,97862.51
2019-03-19T07:21:09.598Z,97878.09
2019-03-19T07:23:40.873Z,97881.68
2019-03-19T07:26:12.273Z,97874.97
2019-03-19T07:28:43.464Z,97867.48
2019-03-19T07:31:14.768Z,97859.86
2019-03-19T07:33:46.455Z,97862.49
2019-03-19T07:36:18.008Z,97858.31
2019-03-19T07:38:49.203Z,97868.84
2019-03-19T07:41:20.587Z,97860.47
2019-03-19T07:43:51.868Z,97871.64
2019-03-19T07:46:23.605Z,97872.28
2019-03-19T07:48:55.961Z,97870.48
2019-03-19T07:51:27.193Z,97868.14
2019-03-19T07:53:58.485Z,97881.93
2019-03-19T07:56:30.190Z,97886.95
2019-03-19T07:59:01.412Z,97889.74
2019-03-19T08:01:32.958Z,97889.38
2019-03-19T08:04:05.128Z,97890.39
2019-03-19T08:06:36.479Z,97892.31
2019-03-19T08:09:08.920Z,97881.57
2019-03-19T08:11:40.270Z,97887.05
2019-03-19T08:14:11.549Z,97882.36
2019-03-19T08:16:43.257Z,97893.73
2019-03-19T08:19:14.609Z,97897.66
2019-03-19T08:21:45.878Z,97900.73
2019-03-19T08:24:17.235Z,97902.78
2019-03-19T08:26:49.223Z,97901.11
2019-03-19T08:29:20.879Z,97900.05
2019-03-19T08:31:52.605Z,97893.08
2019-03-19T08:34:23.979Z,97893.75
2019-03-19T08:36:55.266Z,97887.34
2019-03-19T08:39:26.997Z,97889.81
2019-03-19T08:41:58.260Z,97894.16
2019-03-19T08:44:29.613Z,97884.10
2019-03-19T08:47:01.296Z,97895.52
2019-03-19T08:49:32.515Z,97890.00
2019-03-19T08:52:03.785Z,97890.61
2019-03-19T08:54:35.728Z,97891.41
2019-03-19T08:57:06.693Z,97892.11
2019-03-19T08:59:38.063Z,97889.84
2019-03-19T09:02:09.489Z,97896.61
2019-03-19T09:04:40.704Z,97899.88
2019-03-19T09:07:12.966Z,97905.97
2019-03-19T09:09:44.549Z,97889.27
2019-03-19T09:12:16.095Z,97902.91
2019-03-19T09:14:47.392Z,97902.10
2019-03-19T09:17:18.701Z,97906.50
2019-03-19T09:19:50.882Z,97917.38
2019-03-19T09:22:29.651Z,97911.61
2019-03-19T09:24:56.353Z,97908.44
2019-03-19T09:27:27.699Z,97908.25
2019-03-19T09:29:58.966Z,97913.09
2019-03-19T09:32:30.632Z,97911.91
2019-03-19T09:35:02.305Z,97905.86
2019-03-19T09:37:33.647Z,97912.77
2019-03-19T09:40:05.767Z,97909.20
2019-03-19T09:42:37.047Z,97910.34
2019-03-19T09:45:09.261Z,97902.28
2019-03-19T09:47:40.658Z,97903.86
2019-03-19T09:50:13.706Z,97903.86
2019-03-19T09:52:45.237Z,97899.14
2019-03-19T09:55:16.649Z,97900.17
2019-03-19T09:57:48.083Z,97900.55
2019-03-19T10:00:19.979Z,97897.65
2019-03-19T10:02:51.380Z,97900.90
2019-03-19T10:05:22.817Z,97906.60
2019-03-19T10:07:55.675Z,97912.59
2019-03-19T10:10:27.537Z,97914.73
2019-03-19T10:12:59.032Z,97901.78
2019-03-19T10:15:30.635Z,97898.31
2019-03-19T10:18:01.909Z,97897.16
2019-03-19T10:20:33.190Z,97901.52
2019-03-19T10:23:04.590Z,97890.88
2019-03-19T10:25:38.126Z,97895.27
2019-03-19T10:28:09.202Z,97914.71
2019-03-19T10:30:41.074Z,97918.30
2019-03-19T10:33:12.343Z,97908.73
2019-03-19T10:35:43.731Z,97921.27
2019-03-19T10:38:14.987Z,97927.73
2019-03-19T10:40:46.869Z,97929.10
2019-03-19T10:43:18.057Z,97932.13
2019-03-19T10:45:49.322Z,97946.53
2019-03-19T10:48:20.539Z,97944.66
2019-03-19T10:50:52.012Z,97952.24
2019-03-19T10:53:23.315Z,97950.59
2019-03-19T10:55:55.081Z,97960.20
2019-03-19T10:58:26.760Z,97950.30
2019-03-19T11:00:58.376Z,97958.81
2019-03-19T11:03:30.852Z,97958.25
2019-03-19T11:06:02.108Z,97939.42
2019-03-19T11:08:33.296Z,97952.03
2019-03-19T11:11:04.759Z,97949.20
2019-03-19T11:13:36.470Z,97948.51
2019-03-19T11:16:07.876Z,97942.45
2019-03-19T11:18:39.047Z,97943.05
2019-03-19T11:21:10.392Z,97941.23
2019-03-19T11:23:41.572Z,97936.33
2019-03-19T11:26:13.189Z,97929.72
2019-03-19T11:28:45.800Z,97939.27
2019-03-19T11:31:17.124Z,97940.31
2019-03-19T11:33:48.651Z,97939.61
2019-03-19T11:36:20.057Z,97944.41
2019-03-19T11:38:51.536Z,97946.45
2019-03-19T11:41:22.874Z,97935.56
2019-03-19T11:43:54.075Z,97930.54
2019-03-19T11:46:26.564Z,97924.52
2019-03-19T11:48:57.902Z,97933.91
2019-03-19T11:51:29.321Z,97940.23
2019-03-19T11:54:00.575Z,97935.34
2019-03-19T11:56:32.244Z,97939.89
2019-03-19T11:59:03.712Z,97934.31
2019-03-19T12:01:35.096Z,97937.38
2019-03-19T12:04:06.697Z,97933.27
2019-03-19T12:06:37.909Z,97919.41
2019-03-19T12:09:10.105Z,97918.52
2019-03-19T12:11:41.377Z,97914.11
2019-03-19T12:14:14.631Z,97912.83
2019-03-19T12:16:45.842Z,97911.05
2019-03-19T12:19:17.028Z,97915.34
2019-03-19T12:21:48.297Z,97901.78
2019-03-19T12:24:19.633Z,97910.56
2019-03-19T12:26:50.993Z,97920.37
2019-03-19T12:29:22.505Z,97919.02
2019-03-19T12:31:53.786Z,97924.62
2019-03-19T12:34:24.977Z,97917.77
2019-03-19T12:36:57.475Z,97911.42
2019-03-19T12:39:28.752Z,97921.99
2019-03-19T12:42:00.578Z,97923.97
2019-03-19T12:44:31.934Z,97928.22
2019-03-19T12:47:03.211Z,97928.61
2019-03-19T12:49:34.396Z,97920.50
2019-03-19T12:52:06.181Z,97914.42
2019-03-19T12:54:38.021Z,97905.54
2019-03-19T12:57:09.445Z,97910.54
2019-03-19T12:59:42.611Z,97909.09
2019-03-19T13:02:14.687Z,97902.23
2019-03-19T13:04:46.062Z,97896.77
2019-03-19T13:07:17.240Z,97898.84
2019-03-19T13:09:48.656Z,97899.69
2019-03-19T13:12:20.353Z,97895.07
2019-03-19T13:14:51.559Z,97896.00
2019-03-19T13:17:24.139Z,97885.95
2019-03-19T13:19:55.336Z,97895.92
2019-03-19T13:22:26.618Z,97896.63
2019-03-19T13:24:58.209Z,97908.86
2019-03-19T13:27:29.407Z,97918.61
2019-03-19T13:30:00.943Z,97919.66
2019-03-19T13:32:32.460Z,97920.80
2019-03-19T13:35:04.630Z,97911.13
2019-03-19T13:37:36.141Z,97912.83
2019-03-19T13:40:07.832Z,97918.78
2019-03-19T13:42:39.857Z,97933.58
2019-03-19T13:45:12.279Z,97932.91
2019-03-19T13:47:43.644Z,97934.36
2019-03-19T13:50:15.541Z,97937.95
2019-03-19T13:52:47.066Z,97928.61
2019-03-19T13:55:18.853Z,97936.52
2019-03-19T13:57:50.194Z,97925.40
2019-03-19T14:00:21.965Z,97919.80
2019-03-19T14:02:53.265Z,97912.49
2019-03-19T14:05:24.612Z,97917.13
2019-03-19T14:07:56.238Z,97916.87
2019-03-19T14:10:27.496Z,97910.44
2019-03-19T14:12:59.254Z,97909.82
2019-03-19T14:15:31.554Z,97918.08
2019-03-19T14:18:02.829Z,97917.30
2019-03-19T14:20:34.163Z,97924.80
2019-03-19T14:23:05.684Z,97914.77
2019-03-19T14:25:36.976Z,97917.80
2019-03-19T14:28:08.720Z,97921.84
2019-03-19T14:30:40.096Z,97916.30
2019-03-19T14:33:11.442Z,97921.89
2019-03-19T14:35:42.904Z,97927.09
2019-03-19T14:38:14.393Z,97929.22
2019-03-19T14:40:45.837Z,97925.83
2019-03-19T14:43:17.168Z,97925.75
2019-03-19T14:45:48.518Z,97934.81
2019-03-19T14:48:19.800Z,97941.30
2019-03-19T14:50:51.157Z,97942.80
2019-03-19T14:53:24.477Z,97946.06
2019-03-19T14:55:56.095Z,97956.14
2019-03-19T14:58:27.382Z,97965.31
2019-03-19T15:00:58.754Z,97961.08
2019-03-19T15:03:30.120Z,97958.86
2019-03-19T15:06:01.679Z,97953.38
2019-03-19T15:08:32.952Z,97952.23
2019-03-19T15:11:04.228Z,97956.20
2019-03-19T15:13:35.470Z,97947.44
2019-03-19T15:16:07.320Z,97943.47
2019-03-19T15:18:38.673Z,97940.22
2019-03-19T15:21:10.118Z,97945.44
2019-03-19T15:23:41.383Z,97953.49
2019-03-19T15:26:12.821Z,97960.05
2019-03-19T15:28:44.583Z,97960.11
2019-03-19T15:31:16.203Z,97964.48
2019-03-19T15:33:48.137Z,97961.33
2019-03-19T15:36:19.524Z,97967.27
2019-03-19T15:38:50.711Z,97968.38
2019-03-19T15:41:21.986Z,97965.92
2019-03-19T15:43:53.326Z,97956.37
2019-03-19T15:46:24.889Z,97957.11
2019-03-19T15:48:56.180Z,97959.23
2019-03-19T15:51:28.441Z,97963.12
2019-03-19T15:53:59.801Z,97968.54
2019-03-19T15:56:31.071Z,97977.59
2019-03-19T15:59:02.329Z,97976.01
2019-03-19T16:01:40.286Z,97983.20
2019-03-19T16:04:06.656Z,97990.42
2019-03-19T16:06:37.888Z,97997.39
2019-03-19T16:09:10.643Z,97993.27
2019-03-19T16:11:41.920Z,97998.08
2019-03-19T16:14:13.241Z,97992.03
2019-03-19T16:16:44.876Z,97989.07
2019-03-19T16:19:16.073Z,97996.20
2019-03-19T16:21:47.701Z,98003.67
2019-03-19T16:24:19.139Z,98000.28
2019-03-19T16:26:50.335Z,97996.47
2019-03-19T16:29:21.543Z,98002.89
2019-03-19T16:31:53.120Z,98000.77
2019-03-19T16:34:24.718Z,98015.59
2019-03-19T16:36:55.970Z,98016.00
2019-03-19T16:39:27.162Z,98018.73
2019-03-19T16:41:58.424Z,98024.26
2019-03-19T16:44:29.774Z,98032.05
2019-03-19T16:47:01.026Z,98036.88
2019-03-19T16:49:32.389Z,98036.38
2019-03-19T16:52:04.042Z,98036.94
2019-03-19T16:54:35.224Z,98038.67
2019-03-19T16:57:06.720Z,98043.47
2019-03-19T16:59:37.953Z,98044.73
2019-03-19T17:02:09.607Z,98047.88
2019-03-19T17:04:40.944Z,98059.45
2019-03-19T17:07:12.623Z,98054.68
2019-03-19T17:09:43.954Z,98060.97
2019-03-19T17:12:15.287Z,98066.66
2019-03-19T17:14:46.499Z,98064.87
2019-03-19T17:17:17.779Z,98079.66
2019-03-19T17:19:49.350Z,98079.19
2019-03-19T17:22:20.751Z,98083.89
2019-03-19T17:24:51.950Z,98085.70
2019-03-19T17:27:23.302Z,98091.52
2019-03-19T17:29:55.306Z,98098.64
2019-03-19T17:32:26.955Z,98104.85
2019-03-19T17:34:58.374Z,98106.19
2019-03-19T17:37:29.641Z,98112.19
2019-03-19T17:40:01.293Z,98120.16
2019-03-19T17:42:32.618Z,98129.08
2019-03-19T17:45:04.171Z,98130.10
2019-03-19T17:47:35.353Z,98127.34
2019-03-19T17:50:09.693Z,98134.48
2019-03-19T17:52:40.945Z,98140.48
2019-03-19T17:55:12.837Z,98147.11
2019-03-19T17:57:44.240Z,98155.20
2019-03-19T18:00:20.369Z,98159.83
2019-03-19T18:02:51.834Z,98161.05
2019-03-19T18:05:23.274Z,98164.09
2019-03-19T18:07:54.653Z,98169.59
2019-03-19T18:10:25.896Z,98180.29
2019-03-19T18:12:58.292Z,98180.37
2019-03-19T18:15:29.639Z,98186.50
2019-03-19T18:18:00.889Z,98175.67
2019-03-19T18:20:32.268Z,98183.48
2019-03-19T18:23:03.822Z,98184.61
2019-03-19T18:25:35.015Z,98193.41
2019-03-19T18:28:06.371Z,98186.13
2019-03-19T18:30:38.185Z,98186.55
2019-03-19T18:33:09.466Z,98185.78
2019-03-19T18:35:41.281Z,98195.95
2019-03-19T18:38:12.673Z,98188.59
2019-03-19T18:40:44.049Z,98199.30
2019-03-19T18:43:15.254Z,98189.65
2019-03-19T18:45:47.112Z,98195.97
2019-03-19T18:48:18.326Z,98197.27
2019-03-19T18:50:49.767Z,98208.28
2019-03-19T18:53:21.028Z,98212.67
2019-03-19T18:55:52.359Z,98205.49
2019-03-19T18:58:23.754Z,98209.23
2019-03-19T19:00:55.048Z,98207.25
2019-03-19T19:03:26.814Z,98216.57
2019-03-19T19:05:58.171Z,98217.91
2019-03-19T19:08:32.047Z,98221.67
2019-03-19T19:11:03.429Z,98218.73
2019-03-19T19:13:35.021Z,98230.37
2019-03-19T19:16:06.556Z,98224.94
2019-03-19T19:18:37.751Z,98232.05
2019-03-19T19:21:10.005Z,98235.08
2019-03-19T19:23:41.445Z,98242.81
2019-03-19T19:26:12.792Z,98237.86
2019-03-19T19:28:44.049Z,98242.89
2019-03-19T19:31:15.315Z,98248.00
2019-03-19T19:33:46.687Z,98250.36
2019-03-19T19:36:18.366Z,98247.52
2019-03-19T19:38:49.612Z,98249.34
2019-03-19T19:41:21.356Z,98248.16
2019-03-19T19:43:52.904Z,98249.41
2019-03-19T19:46:24.173Z,98250.62
2019-03-19T19:48:56.327Z,98251.64
2019-03-19T19:51:27.907Z,98257.38
2019-03-19T19:53:59.090Z,98264.08
2019-03-19T19:56:30.323Z,98260.65
2019-03-19T19:59:01.816Z,98272.16
2019-03-19T20:01:32.998Z,98276.02
2019-03-19T20:04:04.665Z,98270.09
2019-03-19T20:06:36.160Z,98274.41
2019-03-19T20:09:09.249Z,98269.44
2019-03-19T20:11:40.917Z,98271.35
2019-03-19T20:14:12.275Z,98267.14
2019-03-19T20:16:43.716Z,98274.08
2019-03-19T20:19:15.001Z,98282.57
2019-03-19T20:21:46.554Z,98281.72
2019-03-19T20:24:18.029Z,98288.86
2019-03-19T20:26:49.553Z,98292.76
2019-03-19T20:29:20.827Z,98294.88
2019-03-19T20:31:52.493Z,98299.50
2019-03-19T20:34:24.086Z,98285.62
2019-03-19T20:36:55.558Z,98286.72
2019-03-19T20:39:26.930Z,98286.06
2019-03-19T20:41:59.928Z,98286.43
2019-03-19T20:44:31.552Z,98297.52
2019-03-19T20:47:02.904Z,98298.75
2019-03-19T20:49:34.221Z,98299.38
2019-03-19T20:52:05.995Z,98304.87
2019-03-19T20:54:37.362Z,98303.86
2019-03-19T20:57:08.717Z,98314.46
2019-03-19T20:59:40.460Z,98313.70
2019-03-19T21:02:12.010Z,98313.55
2019-03-19T21:04:43.425Z,98315.20
2019-03-19T21:07:14.738Z,98317.31
2019-03-19T21:09:46.089Z,98329.15
2019-03-19T21:12:17.470Z,98328.33
2019-03-19T21:14:48.821Z,98335.42
2019-03-19T21:17:20.399Z,98331.16
2019-03-19T21:19:52.158Z,98335.26
2019-03-19T21:22:23.569Z,98335.19
2019-03-19T21:24:55.199Z,98327.51
2019-03-19T21:27:26.553Z,98336.30
2019-03-19T21:29:58.004Z,98339.92
2019-03-19T21:32:29.824Z,98336.73
2019-03-19T21:35:01.148Z,98339.48
2019-03-19T21:37:32.891Z,98347.25
2019-03-19T21:40:04.737Z,98344.61
2019-03-19T21:42:36.009Z,98344.19
2019-03-19T21:45:08.558Z,98343.50
2019-03-19T21:47:39.976Z,98352.89
2019-03-19T21:50:14.109Z,98350.44
2019-03-19T21:52:47.017Z,98354.55
2019-03-19T21:55:18.497Z,98350.73
2019-03-19T21:57:49.967Z,98361.98
2019-03-19T22:00:21.665Z,98358.18
2019-03-19T22:02:53.279Z,98360.30
2019-03-19T22:05:24.735Z,98368.28
2019-03-19T22:07:56.621Z,98368.34
2019-03-19T22:10:27.980Z,98366.80
2019-03-19T22:13:00.028Z,98362.82
2019-03-19T22:15:31.442Z,98368.41
2019-03-19T22:18:02.756Z,98373.57
2019-03-19T22:20:34.002Z,98371.48
2019-03-19T22:23:05.589Z,98379.53
2019-03-19T22:25:37.295Z,98376.65
2019-03-19T22:28:09.268Z,98375.55
2019-03-19T22:30:40.654Z,98381.27
2019-03-19T22:33:11.995Z,98379.78
2019-03-19T22:35:43.710Z,98382.67
2019-03-19T22:38:14.933Z,98379.16
2019-03-19T22:40:46.594Z,98379.22
2019-03-19T22:43:17.792Z,98382.36
2019-03-19T22:45:49.227Z,98379.66
2019-03-19T22:48:20.449Z,98392.17
2019-03-19T22:50:52.491Z,98387.39
2019-03-19T22:53:23.688Z,98384.95
2019-03-19T22:55:55.027Z,98397.30
2019-03-19T22:58:26.361Z,98400.02
2019-03-19T23:00:57.816Z,98394.12
2019-03-19T23:03:29.227Z,98401.37
2019-03-19T23:06:00.575Z,98401.61
2019-03-19T23:08:32.314Z,98404.95
2019-03-19T23:11:04.047Z,98402.08
2019-03-19T23:13:35.390Z,98407.59
2019-03-19T23:16:07.083Z,98404.88
2019-03-19T23:18:39.003Z,98403.01
2019-03-19T23:21:10.362Z,98412.44
2019-03-19T23:23:41.919Z,98409.66
2019-03-19T23:26:13.677Z,98420.05
2019-03-19T23:28:44.954Z,98412.73
2019-03-19T23:31:16.410Z,98425.13
2019-03-19T23:33:47.789Z,98424.53
2019-03-19T23:36:19.067Z,98421.56
2019-03-19T23:38:50.537Z,98428.12
2019-03-19T23:41:21.738Z,98432.13
2019-03-19T23:43:53.065Z,98434.94
2019-03-19T23:46:24.777Z,98440.13
2019-03-19T23:48:55.972Z,98439.95
2019-03-19T23:51:27.256Z,98442.48
2019-03-19T23:53:58.584Z,98435.02
2019-03-19T23:56:30.619Z,98441.07
2019-03-19T23:59:02.291Z,98447.77
